Strasburg, Missouri
Current Conditions -  °F | °C
As of 3:53 PM on Monday 20 Oct 2014 (Local Time) from KLXT Reporting Station
Clear Clear  
Wind Chill: 73°   Ceiling: Unl
Heat Index: 73°   Visibility: 10mi
Dew Point: 46°   Wind: 7mph
Humidity: 38%   Direction: 350°N
Pressure: 30.03"   Gusts: NA
Location:  38.76°N, 94.17°W
Report Text: KLXT 202053Z AUTO 35006KT 10SM CLR 23/08 A3003 RMK AO2 SLP164 T02280078 56012
Loading
Personal Weather Stations






























Interactive Weather Map
Tropical Storm Tracking
New forecast layout! Learn more

10-Day Weather Forecast

Advertisements
Track Severe Weather on mobile